createdAt,value
2023-02-14T00:00:25.675Z,17.4
2023-02-14T00:05:27.165Z,18.4
2023-02-14T00:10:33.404Z,19.7
2023-02-14T00:15:22.363Z,17.3
2023-02-14T00:20:28.708Z,18.7
2023-02-14T00:25:17.304Z,17.3
2023-02-14T00:30:23.376Z,16.7
2023-02-14T00:35:29.574Z,18.1
2023-02-14T00:40:18.349Z,18.1
2023-02-14T00:45:24.108Z,19.0
2023-02-14T00:50:30.150Z,16.5
2023-02-14T00:55:19.263Z,16.3
2023-02-14T01:00:28.366Z,17.0
2023-02-14T01:05:31.988Z,18.6
2023-02-14T01:10:21.458Z,19.6
2023-02-14T01:15:27.056Z,18.5
2023-02-14T01:20:33.727Z,19.1
2023-02-14T01:25:22.198Z,19.0
2023-02-14T01:30:28.375Z,24.3
2023-02-14T01:35:34.356Z,41.4
2023-02-14T01:40:22.730Z,19.8
2023-02-14T01:45:28.582Z,18.7
2023-02-14T01:50:17.678Z,22.9
2023-02-14T01:55:23.688Z,18.3
2023-02-14T02:00:31.878Z,24.5
2023-02-14T02:05:18.185Z,26.0
2023-02-14T02:10:24.355Z,26.4
2023-02-14T02:15:30.472Z,24.4
2023-02-14T02:20:20.613Z,26.0
2023-02-14T02:25:25.810Z,24.6
2023-02-14T02:30:31.472Z,21.4
2023-02-14T02:35:20.486Z,25.0
2023-02-14T02:40:27.173Z,31.2
2023-02-14T02:45:32.997Z,36.6
2023-02-14T02:50:22.063Z,43.2
2023-02-14T02:55:28.116Z,39.6
2023-02-14T03:00:35.893Z,46.8
2023-02-14T03:05:22.648Z,55.0
2023-02-14T03:10:28.721Z,55.7
2023-02-14T03:15:17.679Z,52.3
2023-02-14T03:20:25.412Z,63.5
2023-02-14T03:25:29.686Z,55.9
2023-02-14T03:30:18.783Z,67.3
2023-02-14T03:35:25.005Z,78.1
2023-02-14T03:40:30.774Z,62.1
2023-02-14T03:45:19.683Z,68.0
2023-02-14T03:50:25.585Z,67.9
2023-02-14T03:55:31.781Z,68.3
2023-02-14T04:00:23.488Z,66.9
2023-02-14T04:05:26.228Z,72.8
2023-02-14T04:10:32.147Z,61.5
2023-02-14T04:15:21.161Z,82.8
2023-02-14T04:20:27.537Z,64.5
2023-02-14T04:25:33.277Z,74.6
2023-02-14T04:30:22.349Z,73.2
2023-02-14T04:35:28.418Z,70.1
2023-02-14T04:40:18.638Z,73.2
2023-02-14T04:45:24.001Z,84.2
2023-02-14T04:50:30.455Z,77.5
2023-02-14T04:55:19.334Z,88.6
2023-02-14T05:00:26.838Z,89.2
2023-02-14T05:05:30.691Z,88.1
2023-02-14T05:10:19.800Z,130.4
2023-02-14T05:15:26.002Z,91.6
2023-02-14T05:20:34.313Z,96.4
2023-02-14T05:25:20.753Z,107.8
2023-02-14T05:30:26.934Z,98.7
2023-02-14T05:35:33.411Z,95.4
2023-02-14T05:40:28.960Z,127.4
2023-02-14T05:45:27.532Z,123.8
2023-02-14T05:50:33.655Z,151.5
2023-02-14T05:55:23.240Z,117.8
2023-02-14T06:00:31.820Z,96.8
2023-02-14T06:05:18.137Z,119.2
2023-02-14T06:10:23.412Z,204.1
2023-02-14T06:15:29.397Z,121.9
2023-02-14T06:20:18.683Z,122.9
2023-02-14T06:25:24.629Z,146.9
2023-02-14T06:30:30.907Z,144.1
2023-02-14T06:35:19.600Z,144.7
2023-02-14T06:40:26.642Z,134.3
2023-02-14T06:45:32.140Z,158.6
2023-02-14T06:50:21.039Z,94.4
2023-02-14T06:55:27.478Z,87.0
2023-02-14T07:00:34.731Z,78.9
2023-02-14T07:05:21.713Z,91.9
2023-02-14T07:10:28.413Z,60.9
2023-02-14T07:15:34.109Z,67.2
2023-02-14T07:20:24.400Z,59.2
2023-02-14T07:25:28.861Z,50.4
2023-02-14T07:30:17.898Z,51.0
2023-02-14T07:35:24.209Z,44.9
2023-02-14T07:40:31.266Z,44.2
2023-02-14T07:45:21.937Z,42.7
2023-02-14T07:50:24.843Z,53.3
2023-02-14T07:55:30.872Z,52.0
2023-02-14T08:00:21.299Z,59.4
2023-02-14T08:05:25.350Z,36.0
2023-02-14T08:10:31.306Z,44.0
2023-02-14T08:15:20.666Z,59.1
2023-02-14T08:20:26.624Z,48.7
2023-02-14T08:25:33.215Z,49.2
2023-02-14T08:30:21.457Z,54.8
2023-02-14T08:35:27.663Z,47.3
2023-02-14T08:40:34.446Z,49.8
2023-02-14T08:45:23.202Z,39.6
2023-02-14T08:50:29.165Z,43.1
2023-02-14T08:55:18.259Z,34.5
2023-02-14T09:00:25.757Z,30.2
2023-02-14T09:05:29.897Z,29.7
2023-02-14T09:10:18.750Z,46.6
2023-02-14T09:15:26.344Z,30.0
2023-02-14T09:20:30.935Z,25.6
2023-02-14T09:25:19.830Z,24.8
2023-02-14T09:30:26.183Z,22.6
2023-02-14T09:35:32.414Z,26.7
2023-02-14T09:40:22.934Z,21.6
2023-02-14T09:45:26.751Z,60.3
2023-02-14T09:50:32.826Z,27.1
2023-02-14T09:55:21.610Z,22.6
2023-02-14T10:00:31.004Z,19.7
2023-02-14T10:05:34.426Z,26.1
2023-02-14T10:10:23.115Z,20.4
2023-02-14T10:15:29.420Z,20.2
2023-02-14T10:20:18.338Z,25.4
2023-02-14T10:25:24.550Z,26.9
2023-02-14T10:30:30.765Z,20.4
2023-02-14T10:35:19.821Z,22.1
2023-02-14T10:40:25.469Z,21.1
2023-02-14T10:45:31.222Z,23.0
2023-02-14T10:50:20.479Z,21.2
2023-02-14T10:55:32.236Z,19.9
2023-02-14T11:05:20.638Z,21.8
2023-02-14T11:10:26.882Z,22.5
2023-02-14T11:15:34.294Z,24.8
2023-02-14T11:20:22.662Z,23.2
2023-02-14T11:25:28.056Z,24.5
2023-02-14T11:30:33.974Z,22.1
2023-02-14T11:35:22.995Z,20.1
2023-02-14T11:40:29.305Z,19.6
2023-02-14T11:45:17.631Z,18.7
2023-02-14T11:50:23.682Z,16.9
2023-02-14T11:55:29.931Z,17.6
2023-02-14T12:00:21.471Z,143.3
2023-02-14T12:05:24.266Z,54.9
2023-02-14T12:10:30.297Z,17.6
2023-02-14T12:15:19.294Z,15.4
2023-02-14T12:20:27.412Z,16.0
2023-02-14T12:25:35.615Z,17.0
2023-02-14T12:30:20.646Z,15.0
2023-02-14T12:35:26.793Z,16.7
2023-02-14T12:40:34.384Z,22.0
2023-02-14T12:45:22.248Z,20.3
2023-02-14T12:50:28.277Z,18.0
2023-02-14T12:55:34.530Z,34.7
2023-02-14T13:00:26.384Z,20.2
2023-02-14T13:05:28.675Z,17.7
2023-02-14T13:10:17.878Z,16.0
2023-02-14T13:15:24.235Z,15.6
2023-02-14T13:20:31.353Z,16.6
2023-02-14T13:25:18.869Z,18.5
2023-02-14T13:30:25.417Z,18.3
2023-02-14T13:35:31.542Z,18.8
2023-02-14T13:40:20.998Z,18.2
2023-02-14T13:45:25.727Z,30.8
2023-02-14T13:50:32.121Z,26.6
2023-02-14T13:55:20.706Z,21.1
2023-02-14T14:00:33.188Z,30.3
2023-02-14T14:05:33.291Z,29.7
2023-02-14T14:10:22.166Z,25.2
2023-02-14T14:15:28.115Z,28.8
2023-02-14T14:20:34.703Z,29.9
2023-02-14T14:25:23.560Z,32.7
2023-02-14T14:30:29.413Z,29.4
2023-02-14T14:35:18.733Z,32.8
2023-02-14T14:40:25.460Z,30.6
2023-02-14T14:45:30.170Z,29.4
2023-02-14T14:50:19.233Z,31.5
2023-02-14T14:55:25.129Z,31.9
2023-02-14T15:00:32.717Z,29.3
2023-02-14T15:05:20.225Z,31.8
2023-02-14T15:10:25.964Z,29.3
2023-02-14T15:15:31.989Z,29.2
2023-02-14T15:20:21.638Z,39.2
2023-02-14T15:25:27.145Z,30.6
2023-02-14T15:30:32.892Z,27.8
2023-02-14T15:35:21.943Z,35.2
2023-02-14T15:40:27.726Z,34.9
2023-02-14T15:45:34.077Z,39.5
2023-02-14T15:50:22.899Z,32.6
2023-02-14T15:55:29.049Z,33.2
2023-02-14T16:00:21.382Z,36.7
2023-02-14T16:05:23.348Z,40.1
2023-02-14T16:10:29.451Z,87.3
2023-02-14T16:15:18.369Z,89.2
2023-02-14T16:20:24.541Z,36.5
2023-02-14T16:25:30.560Z,34.2
2023-02-14T16:30:19.504Z,35.1
2023-02-14T16:35:25.756Z,54.2
2023-02-14T16:40:31.459Z,57.1
2023-02-14T16:45:20.131Z,48.3
2023-02-14T16:50:26.378Z,49.3
2023-02-14T16:55:32.595Z,46.3
2023-02-14T17:00:24.964Z,58.9
2023-02-14T17:05:27.921Z,55.6
2023-02-14T17:10:33.758Z,56.8
2023-02-14T17:15:22.734Z,49.8
2023-02-14T17:20:30.818Z,45.7
2023-02-14T17:25:17.835Z,44.7
2023-02-14T17:30:24.004Z,34.4
2023-02-14T17:35:30.183Z,34.3
2023-02-14T17:40:19.041Z,45.7
2023-02-14T17:45:24.887Z,62.6
2023-02-14T17:50:30.672Z,53.5
2023-02-14T17:55:19.802Z,47.4
2023-02-14T18:00:31.853Z,40.5
2023-02-14T18:05:31.250Z,44.3
2023-02-14T18:10:20.321Z,70.1
2023-02-14T18:15:26.222Z,68.0
2023-02-14T18:20:32.711Z,62.8
2023-02-14T18:25:21.489Z,36.9
2023-02-14T18:30:27.447Z,27.8
2023-02-14T18:35:33.590Z,30.1
2023-02-14T18:40:22.335Z,41.7
2023-02-14T18:45:28.167Z,69.3
2023-02-14T18:50:17.384Z,46.1
2023-02-14T18:55:23.359Z,37.4
2023-02-14T19:00:32.623Z,37.8
2023-02-14T19:05:18.879Z,50.1
2023-02-14T19:10:24.915Z,41.6
2023-02-14T19:15:31.073Z,30.7
2023-02-14T19:20:21.518Z,40.7
2023-02-14T19:25:25.993Z,32.3
2023-02-14T19:30:32.228Z,28.2
2023-02-14T19:35:21.030Z,42.2
2023-02-14T19:40:26.692Z,49.4
2023-02-14T19:45:32.971Z,46.0
2023-02-14T19:50:22.199Z,35.5
2023-02-14T19:55:27.997Z,31.8
2023-02-14T20:00:38.401Z,30.4
2023-02-14T20:05:22.356Z,72.1
2023-02-14T20:10:28.234Z,44.9
2023-02-14T20:15:17.274Z,53.4
2023-02-14T20:20:23.277Z,45.5
2023-02-14T20:25:29.429Z,33.3
2023-02-14T20:30:18.428Z,31.0
2023-02-14T20:35:24.302Z,36.7
2023-02-14T20:40:31.179Z,34.1
2023-02-14T20:45:20.262Z,34.9
2023-02-14T20:50:26.116Z,50.7
2023-02-14T20:55:32.594Z,36.0
2023-02-14T21:00:22.654Z,30.2
2023-02-14T21:05:26.758Z,26.4
2023-02-14T21:10:33.224Z,49.8
2023-02-14T21:15:21.708Z,51.1
2023-02-14T21:20:27.791Z,29.3
2023-02-14T21:25:33.980Z,22.0
2023-02-14T21:30:23.069Z,34.3
2023-02-14T21:35:29.098Z,39.4
2023-02-14T21:40:17.766Z,30.2
2023-02-14T21:45:23.396Z,71.7
2023-02-14T21:50:29.791Z,42.4
2023-02-14T21:55:18.766Z,94.5
2023-02-14T22:00:27.197Z,27.7
2023-02-14T22:05:30.969Z,55.5
2023-02-14T22:10:20.144Z,30.0
2023-02-14T22:15:25.980Z,24.0
2023-02-14T22:20:32.486Z,49.8
2023-02-14T22:25:21.649Z,38.6
2023-02-14T22:30:27.985Z,25.5
2023-02-14T22:35:33.587Z,23.6
2023-02-14T22:40:21.787Z,22.7
2023-02-14T22:45:28.060Z,22.0
2023-02-14T22:50:33.774Z,26.6
2023-02-14T22:55:23.020Z,31.6
2023-02-14T23:00:33.181Z,28.6
2023-02-14T23:05:18.062Z,27.1
2023-02-14T23:10:24.039Z,22.8
2023-02-14T23:15:29.895Z,29.6
2023-02-14T23:20:19.063Z,22.5
2023-02-14T23:25:26.658Z,24.2
2023-02-14T23:30:30.698Z,22.6
2023-02-14T23:35:19.681Z,26.8
2023-02-14T23:40:26.103Z,18.8
2023-02-14T23:45:31.766Z,24.4
2023-02-14T23:50:20.726Z,27.4
2023-02-14T23:55:27.012Z,15.9
